createdAt,value
2018-04-19T00:00:55.158Z,12.26
2018-04-19T00:01:55.083Z,12.21
2018-04-19T00:02:55.009Z,12.12
2018-04-19T00:03:54.936Z,12.23
2018-04-19T00:04:54.861Z,12.18
2018-04-19T00:05:54.790Z,12.21
2018-04-19T00:06:54.711Z,12.16
2018-04-19T00:07:54.642Z,12.12
2018-04-19T00:08:54.565Z,12.15
2018-04-19T00:09:54.490Z,12.21
2018-04-19T00:10:54.417Z,12.34
2018-04-19T00:11:54.355Z,12.31
2018-04-19T00:12:54.304Z,12.34
2018-04-19T00:13:54.193Z,12.44
2018-04-19T00:14:54.120Z,12.45
2018-04-19T00:15:54.046Z,12.51
2018-04-19T00:16:53.971Z,12.46
2018-04-19T00:17:53.902Z,12.49
2018-04-19T00:18:53.826Z,12.49
2018-04-19T00:19:53.748Z,12.37
2018-04-19T00:20:53.680Z,12.37
2018-04-19T00:21:53.603Z,12.30
2018-04-19T00:22:53.527Z,12.27
2018-04-19T00:23:53.453Z,12.30
2018-04-19T00:24:53.379Z,12.27
2018-04-19T00:25:53.304Z,12.24
2018-04-19T00:26:53.229Z,12.16
2018-04-19T00:27:53.156Z,12.21
2018-04-19T00:28:53.082Z,12.19
2018-04-19T00:29:53.008Z,12.23
2018-04-19T00:30:52.933Z,12.19
2018-04-19T00:31:52.861Z,12.18
2018-04-19T00:32:52.786Z,12.16
2018-04-19T00:33:52.711Z,12.09
2018-04-19T00:34:52.643Z,12.18
2018-04-19T00:35:52.563Z,12.21
2018-04-19T00:36:52.489Z,12.23
2018-04-19T00:37:52.414Z,12.16
2018-04-19T00:38:52.341Z,12.31
2018-04-19T00:39:52.267Z,12.23
2018-04-19T00:40:52.196Z,12.24
2018-04-19T00:41:52.118Z,12.21
2018-04-19T00:42:52.044Z,12.26
2018-04-19T00:43:51.972Z,12.24
2018-04-19T00:44:51.896Z,12.19
2018-04-19T00:45:51.823Z,12.09
2018-04-19T00:46:51.748Z,12.13
2018-04-19T00:47:51.674Z,12.12
2018-04-19T00:48:51.600Z,11.94
2018-04-19T00:49:51.524Z,12.02
2018-04-19T00:50:51.451Z,11.95
2018-04-19T00:51:51.377Z,12.02
2018-04-19T00:52:51.303Z,12.00
2018-04-19T00:53:51.229Z,11.94
2018-04-19T00:54:51.158Z,12.02
2018-04-19T00:55:51.080Z,12.11
2018-04-19T00:56:51.012Z,12.12
2018-04-19T00:57:50.931Z,12.27
2018-04-19T00:58:50.858Z,12.37
2018-04-19T00:59:50.783Z,12.51
2018-04-19T01:00:50.709Z,12.63
2018-04-19T01:01:50.634Z,12.63
2018-04-19T01:02:50.559Z,12.63
2018-04-19T01:03:50.486Z,12.69
2018-04-19T01:04:50.411Z,12.56
2018-04-19T01:05:50.337Z,12.56
2018-04-19T01:06:50.262Z,12.51
2018-04-19T01:07:50.189Z,12.45
2018-04-19T01:08:50.119Z,12.44
2018-04-19T01:09:50.040Z,12.49
2018-04-19T01:10:49.967Z,12.45
2018-04-19T01:11:49.901Z,12.39
2018-04-19T01:12:49.819Z,12.36
2018-04-19T01:13:49.744Z,12.36
2018-04-19T01:14:49.670Z,12.31
2018-04-19T01:15:49.595Z,12.16
2018-04-19T01:16:49.522Z,12.15
2018-04-19T01:17:49.447Z,12.12
2018-04-19T01:18:49.374Z,11.94
2018-04-19T01:19:49.299Z,11.93
2018-04-19T01:20:49.225Z,11.87
2018-04-19T01:21:49.154Z,11.79
2018-04-19T01:22:49.076Z,11.83
2018-04-19T01:23:49.002Z,11.72
2018-04-19T01:24:48.927Z,11.76
2018-04-19T01:25:48.855Z,11.72
2018-04-19T01:26:48.778Z,11.68
2018-04-19T01:27:48.704Z,11.68
2018-04-19T01:28:48.634Z,11.74
2018-04-19T01:29:48.555Z,11.75
2018-04-19T01:30:48.481Z,11.64
2018-04-19T01:31:48.406Z,11.69
2018-04-19T01:32:48.333Z,11.71
2018-04-19T01:33:48.259Z,11.69
2018-04-19T01:34:48.183Z,11.65
2018-04-19T01:35:48.109Z,11.75
2018-04-19T01:36:48.034Z,11.67
2018-04-19T01:37:47.958Z,11.64
2018-04-19T01:38:47.885Z,11.61
2018-04-19T01:39:47.809Z,11.72
2018-04-19T01:40:47.736Z,11.69
2018-04-19T01:41:47.662Z,11.69
2018-04-19T01:42:47.587Z,11.61
2018-04-19T01:43:47.513Z,11.69
2018-04-19T01:44:47.438Z,11.75
2018-04-19T01:45:47.363Z,11.75
2018-04-19T01:46:47.289Z,11.71
2018-04-19T01:47:47.215Z,11.71
2018-04-19T01:48:47.139Z,11.69
2018-04-19T01:49:47.066Z,11.75
2018-04-19T01:50:46.989Z,11.72
2018-04-19T01:51:46.921Z,11.72
2018-04-19T01:52:46.841Z,11.72
2018-04-19T01:53:46.767Z,11.79
2018-04-19T01:54:46.692Z,11.71
2018-04-19T01:55:46.619Z,11.68
2018-04-19T01:56:46.543Z,11.71
2018-04-19T01:57:46.468Z,11.71
2018-04-19T01:58:46.394Z,11.67
2018-04-19T01:59:46.321Z,11.61
2018-04-19T02:00:46.247Z,11.68
2018-04-19T02:01:46.169Z,11.67
2018-04-19T02:02:46.099Z,11.64
2018-04-19T02:03:46.021Z,11.69
2018-04-19T02:04:45.947Z,11.69
2018-04-19T02:05:45.872Z,11.72
2018-04-19T02:06:45.798Z,11.69
2018-04-19T02:07:45.723Z,11.72
2018-04-19T02:08:45.648Z,11.72
2018-04-19T02:09:45.573Z,11.76
2018-04-19T02:10:45.501Z,11.75
2018-04-19T02:11:45.423Z,11.78
2018-04-19T02:12:45.349Z,11.79
2018-04-19T02:13:45.276Z,11.69
2018-04-19T02:14:45.199Z,11.76
2018-04-19T02:15:45.129Z,11.65
2018-04-19T02:16:45.051Z,11.68
2018-04-19T02:17:44.977Z,11.67
2018-04-19T02:18:44.900Z,11.61
2018-04-19T02:19:44.826Z,11.56
2018-04-19T02:20:44.753Z,11.65
2018-04-19T02:21:44.977Z,11.60
2018-04-19T02:22:44.602Z,11.69
2018-04-19T02:23:44.528Z,11.68
2018-04-19T02:24:44.452Z,11.65
2018-04-19T02:25:44.377Z,11.68
2018-04-19T02:26:44.304Z,11.78
2018-04-19T02:27:44.229Z,11.71
2018-04-19T02:28:44.153Z,11.81
2018-04-19T02:29:44.078Z,11.86
2018-04-19T02:30:44.004Z,11.74
2018-04-19T02:31:43.930Z,11.86
2018-04-19T02:32:43.857Z,11.95
2018-04-19T02:33:43.781Z,11.97
2018-04-19T02:34:43.707Z,11.98
2018-04-19T02:35:43.632Z,11.90
2018-04-19T02:36:43.557Z,11.86
2018-04-19T02:37:43.481Z,11.86
2018-04-19T02:38:43.408Z,11.75
2018-04-19T02:39:43.332Z,11.69
2018-04-19T02:40:43.264Z,11.56
2018-04-19T02:41:43.183Z,11.41
2018-04-19T02:42:43.109Z,11.35
2018-04-19T02:43:43.037Z,11.26
2018-04-19T02:44:42.960Z,11.17
2018-04-19T02:45:42.889Z,11.20
2018-04-19T02:46:42.810Z,11.13
2018-04-19T02:47:42.735Z,11.06
2018-04-19T02:48:42.660Z,11.13
2018-04-19T02:49:42.585Z,11.16
2018-04-19T02:50:42.511Z,11.06
2018-04-19T02:51:42.436Z,11.06
2018-04-19T02:52:42.362Z,11.18
2018-04-19T02:53:42.287Z,11.14
2018-04-19T02:54:42.211Z,11.18
2018-04-19T02:55:42.137Z,11.06
2018-04-19T02:56:42.062Z,11.05
2018-04-19T02:57:41.987Z,11.03
2018-04-19T02:58:41.912Z,10.99
2018-04-19T02:59:41.838Z,11.05
2018-04-19T03:00:41.763Z,11.05
2018-04-19T03:01:41.691Z,10.93
2018-04-19T03:02:41.612Z,10.93
2018-04-19T03:03:41.537Z,10.98
2018-04-19T03:04:41.463Z,10.91
2018-04-19T03:05:41.392Z,10.95
2018-04-19T03:06:41.312Z,10.98
2018-04-19T03:07:41.237Z,10.87
2018-04-19T03:08:41.163Z,10.93
2018-04-19T03:09:41.088Z,10.83
2018-04-19T03:10:41.011Z,10.83
2018-04-19T03:11:40.941Z,10.87
2018-04-19T03:12:40.862Z,11.00
2018-04-19T03:13:40.785Z,10.87
2018-04-19T03:14:40.712Z,10.93
2018-04-19T03:15:40.637Z,10.96
2018-04-19T03:16:40.560Z,10.99
2018-04-19T03:17:40.485Z,11.10
2018-04-19T03:18:40.411Z,11.21
2018-04-19T03:19:40.336Z,11.29
2018-04-19T03:20:40.262Z,11.31
2018-04-19T03:21:40.186Z,11.35
2018-04-19T03:22:40.111Z,11.39
2018-04-19T03:23:40.037Z,11.31
2018-04-19T03:24:39.961Z,11.35
2018-04-19T03:25:39.887Z,11.41
2018-04-19T03:26:39.813Z,11.39
2018-04-19T03:27:39.740Z,11.34
2018-04-19T03:28:39.662Z,11.29
2018-04-19T03:29:39.588Z,11.28
2018-04-19T03:30:39.514Z,11.35
2018-04-19T03:31:39.438Z,11.31
2018-04-19T03:32:39.362Z,11.38
2018-04-19T03:33:39.288Z,11.43
2018-04-19T03:34:39.212Z,11.38
2018-04-19T03:35:39.138Z,11.50
2018-04-19T03:36:39.063Z,11.56
2018-04-19T03:37:38.988Z,11.51
2018-04-19T03:38:38.915Z,11.61
2018-04-19T03:39:38.838Z,11.74
2018-04-19T03:40:38.763Z,11.83
2018-04-19T03:41:38.689Z,11.95
2018-04-19T03:42:38.614Z,12.09
2018-04-19T03:43:38.540Z,12.24
2018-04-19T03:44:38.464Z,12.51
2018-04-19T03:45:38.388Z,12.45
2018-04-19T03:46:38.313Z,12.61
2018-04-19T03:47:38.238Z,12.49
2018-04-19T03:48:38.173Z,12.55
2018-04-19T03:49:38.089Z,12.46
2018-04-19T03:50:38.016Z,12.51
2018-04-19T03:51:37.941Z,12.51
2018-04-19T03:52:37.866Z,12.63
2018-04-19T03:53:37.791Z,12.64
2018-04-19T03:54:37.715Z,12.78
2018-04-19T03:55:37.641Z,12.70
2018-04-19T03:56:37.568Z,12.71
2018-04-19T03:57:37.491Z,12.73
2018-04-19T03:58:37.417Z,12.74
2018-04-19T03:59:37.342Z,12.78
2018-04-19T04:00:37.268Z,13.14
2018-04-19T04:01:37.193Z,13.18
2018-04-19T04:02:37.118Z,13.37
2018-04-19T04:03:37.044Z,13.56
2018-04-19T04:04:36.970Z,13.45
2018-04-19T04:05:36.894Z,13.45
2018-04-19T04:06:36.860Z,13.44
2018-04-19T04:07:36.745Z,13.44
2018-04-19T04:08:36.671Z,13.47
2018-04-19T04:09:36.596Z,13.45
2018-04-19T04:10:36.527Z,13.44
2018-04-19T04:11:36.447Z,13.44
2018-04-19T04:12:36.373Z,13.38
2018-04-19T04:13:36.300Z,13.36
2018-04-19T04:14:36.225Z,13.44
2018-04-19T04:15:36.150Z,13.38
2018-04-19T04:16:36.081Z,13.40
2018-04-19T04:17:36.004Z,13.63
2018-04-19T04:18:35.928Z,13.92
2018-04-19T04:19:35.852Z,13.98
2018-04-19T04:20:35.779Z,13.94
2018-04-19T04:21:35.704Z,13.78
2018-04-19T04:22:35.630Z,13.78
2018-04-19T04:23:35.556Z,13.94
2018-04-19T04:24:35.481Z,13.84
2018-04-19T04:25:35.408Z,13.96
2018-04-19T04:26:35.333Z,13.92
2018-04-19T04:27:35.260Z,13.84
2018-04-19T04:28:35.185Z,13.81
2018-04-19T04:29:35.111Z,13.61
2018-04-19T04:30:35.037Z,13.74
2018-04-19T04:31:34.964Z,13.74
2018-04-19T04:32:34.887Z,13.76
2018-04-19T04:33:34.814Z,13.68
2018-04-19T04:34:34.740Z,13.73
2018-04-19T04:35:34.666Z,13.68
2018-04-19T04:36:34.592Z,13.89
2018-04-19T04:37:34.516Z,13.91
2018-04-19T04:38:34.443Z,13.99
2018-04-19T04:39:34.369Z,14.16
2018-04-19T04:40:34.295Z,14.24
2018-04-19T04:41:34.221Z,14.35
2018-04-19T04:42:34.149Z,14.49
2018-04-19T04:43:34.073Z,14.50
2018-04-19T04:44:34.004Z,14.54
2018-04-19T04:45:33.926Z,14.59
2018-04-19T04:46:33.851Z,14.60
2018-04-19T04:47:33.778Z,14.67
2018-04-19T04:48:33.705Z,14.75
2018-04-19T04:49:33.629Z,14.72
2018-04-19T04:50:33.555Z,14.78
2018-04-19T04:51:33.482Z,14.79
2018-04-19T04:52:33.408Z,14.71
2018-04-19T04:53:33.333Z,14.72
2018-04-19T04:54:33.259Z,14.74
2018-04-19T04:55:33.187Z,14.72
2018-04-19T04:56:33.113Z,14.74
2018-04-19T04:57:33.040Z,14.74
2018-04-19T04:58:32.966Z,14.72
2018-04-19T04:59:32.893Z,14.59
2018-04-19T05:00:32.820Z,14.84
2018-04-19T05:01:32.749Z,14.83
2018-04-19T05:02:32.675Z,14.84
2018-04-19T05:03:32.598Z,14.85
2018-04-19T05:04:32.532Z,14.79
2018-04-19T05:05:32.450Z,14.88
2018-04-19T05:06:32.378Z,14.69
2018-04-19T05:07:32.305Z,14.79
2018-04-19T05:08:32.230Z,14.88
2018-04-19T05:09:32.157Z,14.83
2018-04-19T05:10:32.082Z,14.85
2018-04-19T05:11:32.010Z,14.85
2018-04-19T05:12:31.937Z,14.85
2018-04-19T05:13:31.868Z,14.83
2018-04-19T05:14:31.803Z,14.88
2018-04-19T05:15:31.719Z,14.83
2018-04-19T05:16:31.644Z,14.85
2018-04-19T05:17:31.575Z,14.87
2018-04-19T05:18:31.496Z,15.01
2018-04-19T05:19:31.425Z,15.12
2018-04-19T05:20:31.355Z,15.15
2018-04-19T05:21:31.276Z,15.09
2018-04-19T05:22:31.203Z,15.01
2018-04-19T05:23:31.130Z,15.12
2018-04-19T05:24:31.056Z,15.08
2018-04-19T05:25:30.984Z,14.95
2018-04-19T05:26:30.910Z,15.02
2018-04-19T05:27:30.838Z,14.94
2018-04-19T05:28:30.765Z,15.08
2018-04-19T05:29:30.693Z,15.09
2018-04-19T05:30:30.618Z,15.06
2018-04-19T05:31:30.544Z,14.97
2018-04-19T05:32:30.473Z,14.84
2018-04-19T05:33:30.399Z,14.80
2018-04-19T05:34:30.325Z,14.78
2018-04-19T05:35:30.251Z,14.71
2018-04-19T05:36:30.179Z,14.60
2018-04-19T05:37:30.104Z,14.54
2018-04-19T05:38:30.033Z,14.75
2018-04-19T05:39:29.960Z,14.78
2018-04-19T05:40:29.886Z,14.87
2018-04-19T05:41:29.813Z,14.75
2018-04-19T05:42:29.739Z,14.69
2018-04-19T05:43:29.668Z,14.67
2018-04-19T05:44:29.594Z,14.87
2018-04-19T05:45:29.524Z,14.94
2018-04-19T05:46:29.447Z,15.01
2018-04-19T05:47:29.374Z,15.15
2018-04-19T05:48:29.302Z,15.31
2018-04-19T05:49:29.227Z,15.27
2018-04-19T05:50:29.156Z,15.53
2018-04-19T05:51:29.082Z,15.71
2018-04-19T05:52:29.009Z,15.70
2018-04-19T05:53:28.939Z,15.71
2018-04-19T05:54:28.876Z,15.68
2018-04-19T05:55:28.789Z,15.67
2018-04-19T05:56:28.718Z,15.57
2018-04-19T05:57:28.644Z,15.57
2018-04-19T05:58:28.572Z,15.52
2018-04-19T05:59:28.498Z,15.43
2018-04-19T06:00:28.427Z,15.42
2018-04-19T06:01:28.356Z,15.41
2018-04-19T06:02:28.280Z,15.52
2018-04-19T06:03:28.208Z,15.28
2018-04-19T06:04:28.136Z,15.48
2018-04-19T06:05:28.063Z,15.53
2018-04-19T06:06:27.989Z,15.59
2018-04-19T06:07:27.917Z,15.67
2018-04-19T06:08:27.845Z,15.78
2018-04-19T06:09:27.773Z,15.88
2018-04-19T06:10:27.701Z,15.89
2018-04-19T06:11:27.628Z,15.97
2018-04-19T06:12:27.557Z,15.99
2018-04-19T06:13:27.482Z,16.10
2018-04-19T06:14:27.411Z,16.22
2018-04-19T06:15:27.338Z,16.26
2018-04-19T06:16:27.267Z,16.10
2018-04-19T06:17:27.196Z,16.08
2018-04-19T06:18:27.122Z,16.12
2018-04-19T06:19:27.049Z,16.16
2018-04-19T06:20:26.977Z,16.07
2018-04-19T06:21:26.905Z,16.12
2018-04-19T06:22:26.832Z,16.12
2018-04-19T06:23:26.761Z,16.10
2018-04-19T06:24:26.691Z,16.03
2018-04-19T06:25:26.616Z,16.03
2018-04-19T06:26:26.549Z,16.03
2018-04-19T06:27:26.473Z,15.94
2018-04-19T06:28:26.401Z,15.94
2018-04-19T06:29:26.328Z,16.00
2018-04-19T06:30:26.312Z,15.85
2018-04-19T06:31:26.189Z,15.92
2018-04-19T06:32:26.114Z,15.97
2018-04-19T06:33:26.041Z,16.01
2018-04-19T06:34:25.973Z,15.97
2018-04-19T06:35:25.898Z,16.06
2018-04-19T06:36:25.830Z,16.10
2018-04-19T06:37:25.758Z,16.23
2018-04-19T06:38:25.683Z,16.23
2018-04-19T06:39:25.612Z,16.30
2018-04-19T06:40:25.540Z,16.29
2018-04-19T06:41:25.474Z,16.48
2018-04-19T06:42:25.398Z,16.45
2018-04-19T06:43:25.328Z,16.48
2018-04-19T06:44:25.256Z,16.45
2018-04-19T06:45:25.182Z,16.53
2018-04-19T06:46:25.113Z,16.44
2018-04-19T06:47:25.040Z,16.59
2018-04-19T06:48:24.971Z,16.66
2018-04-19T06:49:24.897Z,16.66
2018-04-19T06:50:24.825Z,16.74
2018-04-19T06:51:24.757Z,16.74
2018-04-19T06:52:24.684Z,16.70
2018-04-19T06:53:24.612Z,16.73
2018-04-19T06:54:24.541Z,16.75
2018-04-19T06:55:24.470Z,16.92
2018-04-19T06:56:24.399Z,16.89
2018-04-19T06:57:24.328Z,16.95
2018-04-19T06:58:24.256Z,17.10
2018-04-19T06:59:24.186Z,17.10
2018-04-19T07:00:24.114Z,17.08
2018-04-19T07:01:24.043Z,17.20
2018-04-19T07:02:23.971Z,17.23
2018-04-19T07:03:23.901Z,17.38
2018-04-19T07:04:23.834Z,17.39
2018-04-19T07:05:23.758Z,17.66
2018-04-19T07:06:23.688Z,17.71
2018-04-19T07:07:23.619Z,17.74
2018-04-19T07:08:23.547Z,17.64
2018-04-19T07:09:23.475Z,17.73
2018-04-19T07:10:23.404Z,17.82
2018-04-19T07:11:23.332Z,17.85
2018-04-19T07:12:23.264Z,17.92
2018-04-19T07:13:23.191Z,17.91
2018-04-19T07:14:23.119Z,18.07
2018-04-19T07:15:23.050Z,18.02
2018-04-19T07:16:22.980Z,18.22
2018-04-19T07:17:22.908Z,18.34
2018-04-19T07:18:22.842Z,18.44
2018-04-19T07:19:22.766Z,18.46
2018-04-19T07:20:22.733Z,18.61
2018-04-19T07:21:22.625Z,18.64
2018-04-19T07:22:22.554Z,18.84
2018-04-19T07:23:22.484Z,18.95
2018-04-19T07:24:22.413Z,19.01
2018-04-19T07:25:22.341Z,19.11
2018-04-19T07:26:22.272Z,19.35
2018-04-19T07:27:22.202Z,19.54
2018-04-19T07:28:22.131Z,19.68
2018-04-19T07:29:22.060Z,19.69
2018-04-19T07:30:21.990Z,19.75
2018-04-19T07:31:21.924Z,19.79
2018-04-19T07:32:21.853Z,19.73
2018-04-19T07:33:21.780Z,19.87
2018-04-19T07:34:21.709Z,19.90
2018-04-19T07:35:21.638Z,19.88
2018-04-19T07:36:21.568Z,19.95
2018-04-19T07:37:21.498Z,20.03
2018-04-19T07:38:21.428Z,20.20
2018-04-19T07:39:21.359Z,20.18
2018-04-19T07:40:21.290Z,20.33
2018-04-19T07:41:21.220Z,20.31
2018-04-19T07:42:21.150Z,20.40
2018-04-19T07:43:21.080Z,20.49
2018-04-19T07:44:21.011Z,20.49
2018-04-19T07:45:20.941Z,20.38
2018-04-19T07:46:20.871Z,20.51
2018-04-19T07:47:20.803Z,20.59
2018-04-19T07:48:20.733Z,20.57
2018-04-19T07:49:20.662Z,20.66
2018-04-19T07:50:20.593Z,20.72
2018-04-19T07:51:20.525Z,20.72
2018-04-19T07:52:20.454Z,20.76
2018-04-19T07:53:20.384Z,20.82
2018-04-19T07:54:20.315Z,20.84
2018-04-19T07:55:20.248Z,20.91
2018-04-19T07:56:20.178Z,21.08
2018-04-19T07:57:20.111Z,21.02
2018-04-19T07:58:20.038Z,21.06
2018-04-19T07:59:19.970Z,21.06
2018-04-19T08:00:19.900Z,21.17
2018-04-19T08:01:19.831Z,21.17
2018-04-19T08:02:19.762Z,21.21
2018-04-19T08:03:19.693Z,21.23
2018-04-19T08:04:19.627Z,21.21
2018-04-19T08:05:19.608Z,21.17
2018-04-19T08:06:19.490Z,21.12
2018-04-19T08:07:19.417Z,21.23
2018-04-19T08:08:19.351Z,21.33
2018-04-19T08:09:19.277Z,21.35
2018-04-19T08:10:19.209Z,21.29
2018-04-19T08:11:19.182Z,21.39
2018-04-19T08:12:19.072Z,21.38
2018-04-19T08:13:19.002Z,21.48
2018-04-19T08:14:18.934Z,21.44
2018-04-19T08:15:18.866Z,21.49
2018-04-19T08:16:18.797Z,21.45
2018-04-19T08:17:18.727Z,21.46
2018-04-19T08:18:18.659Z,21.49
2018-04-19T08:19:18.591Z,21.49
2018-04-19T08:20:18.523Z,21.59
2018-04-19T08:21:18.456Z,21.63
2018-04-19T08:22:18.389Z,21.76
2018-04-19T08:23:18.316Z,21.91
2018-04-19T08:24:18.248Z,21.89
2018-04-19T08:25:18.177Z,21.91
2018-04-19T08:26:18.109Z,21.89
2018-04-19T08:27:18.044Z,21.91
2018-04-19T08:28:17.973Z,21.89
2018-04-19T08:29:17.904Z,21.92
2018-04-19T08:30:17.836Z,22.01
2018-04-19T08:31:17.768Z,21.97
2018-04-19T08:32:17.698Z,22.01
2018-04-19T08:33:17.630Z,22.17
2018-04-19T08:34:17.561Z,22.12
2018-04-19T08:35:17.492Z,22.16
2018-04-19T08:36:17.425Z,22.10
2018-04-19T08:37:17.355Z,22.07
2018-04-19T08:38:17.287Z,22.22
2018-04-19T08:39:17.218Z,22.32
2018-04-19T08:40:17.151Z,22.34
2018-04-19T08:41:17.081Z,22.31
2018-04-19T08:42:17.013Z,22.12
2018-04-19T08:43:16.944Z,22.15
2018-04-19T08:44:16.877Z,22.19
2018-04-19T08:45:16.808Z,22.16
2018-04-19T08:46:16.742Z,22.37
2018-04-19T08:47:16.678Z,22.23
2018-04-19T08:48:16.602Z,22.24
2018-04-19T08:49:16.533Z,22.34
2018-04-19T08:50:16.507Z,22.34
2018-04-19T08:51:16.401Z,22.30
2018-04-19T08:52:16.330Z,22.23
2018-04-19T08:53:16.261Z,22.41
2018-04-19T08:54:16.192Z,22.37
2018-04-19T08:55:16.123Z,22.44
2018-04-19T08:56:16.054Z,22.52
2018-04-19T08:57:15.986Z,22.56
2018-04-19T08:58:15.918Z,22.59
2018-04-19T08:59:15.850Z,22.60
2018-04-19T09:00:15.783Z,22.60
2018-04-19T09:01:15.711Z,22.65
2018-04-19T09:02:15.646Z,22.67
2018-04-19T09:03:15.577Z,22.83
2018-04-19T09:04:15.509Z,22.81
2018-04-19T09:05:15.440Z,22.83
2018-04-19T09:06:15.372Z,22.90
2018-04-19T09:07:15.303Z,22.90
2018-04-19T09:08:15.237Z,23.00
2018-04-19T09:09:15.168Z,22.93
2018-04-19T09:10:15.100Z,22.89
2018-04-19T09:11:15.032Z,22.90
2018-04-19T09:12:14.964Z,22.94
2018-04-19T09:13:14.895Z,23.09
2018-04-19T09:14:14.826Z,22.96
2018-04-19T09:15:14.760Z,22.96
2018-04-19T09:16:14.692Z,22.84
2018-04-19T09:17:14.623Z,22.83
2018-04-19T09:18:14.558Z,22.78
2018-04-19T09:19:14.488Z,22.77
2018-04-19T09:20:14.419Z,22.83
2018-04-19T09:21:14.350Z,22.78
2018-04-19T09:22:14.284Z,22.86
2018-04-19T09:23:14.214Z,22.92
2018-04-19T09:24:14.148Z,22.92
2018-04-19T09:25:14.085Z,23.00
2018-04-19T09:26:14.011Z,22.92
2018-04-19T09:27:13.944Z,22.94
2018-04-19T09:28:13.876Z,22.92
2018-04-19T09:29:13.808Z,22.96
2018-04-19T09:30:13.740Z,22.93
2018-04-19T09:31:13.673Z,22.81
2018-04-19T09:32:13.905Z,22.93
2018-04-19T09:33:13.536Z,22.83
2018-04-19T09:34:13.498Z,22.74
2018-04-19T09:35:13.402Z,22.75
2018-04-19T09:36:13.334Z,22.79
2018-04-19T09:37:13.265Z,22.94
2018-04-19T09:38:13.197Z,23.04
2018-04-19T09:39:13.131Z,23.12
2018-04-19T09:40:13.064Z,23.11
2018-04-19T09:41:12.996Z,23.11
2018-04-19T09:42:12.928Z,23.17
2018-04-19T09:43:12.860Z,23.11
2018-04-19T09:44:12.797Z,23.05
2018-04-19T09:45:12.725Z,23.07
2018-04-19T09:46:12.657Z,23.07
2018-04-19T09:47:12.594Z,23.08
2018-04-19T09:48:12.523Z,23.15
2018-04-19T09:49:12.452Z,23.12
2018-04-19T09:50:12.385Z,23.23
2018-04-19T09:51:12.318Z,23.23
2018-04-19T09:52:12.249Z,23.27
2018-04-19T09:53:12.182Z,23.20
2018-04-19T09:54:12.200Z,23.27
2018-04-19T09:55:12.046Z,23.22
2018-04-19T09:56:11.981Z,23.17
2018-04-19T09:57:11.915Z,23.26
2018-04-19T09:58:11.842Z,23.15
2018-04-19T09:59:11.774Z,23.22
2018-04-19T10:00:11.706Z,23.40
2018-04-19T10:01:11.643Z,23.37
2018-04-19T10:02:11.570Z,23.52
2018-04-19T10:03:11.505Z,23.56
2018-04-19T10:04:11.470Z,23.42
2018-04-19T10:05:11.368Z,23.56
2018-04-19T10:06:11.301Z,23.55
2018-04-19T10:07:11.234Z,23.56
2018-04-19T10:08:11.167Z,23.53
2018-04-19T10:09:11.095Z,23.55
2018-04-19T10:10:11.029Z,23.56
2018-04-19T10:11:10.963Z,23.52
2018-04-19T10:12:10.897Z,23.52
2018-04-19T10:13:10.827Z,23.37
2018-04-19T10:14:10.760Z,23.49
2018-04-19T10:15:10.694Z,23.40
2018-04-19T10:16:10.691Z,23.46
2018-04-19T10:17:10.557Z,23.55
2018-04-19T10:18:10.490Z,23.56
2018-04-19T10:19:10.424Z,23.68
2018-04-19T10:20:10.357Z,23.78
2018-04-19T10:21:10.288Z,23.71
2018-04-19T10:22:10.220Z,23.78
2018-04-19T10:23:10.153Z,23.74
2018-04-19T10:24:10.086Z,23.75
2018-04-19T10:25:10.019Z,23.72
2018-04-19T10:26:09.952Z,23.74
2018-04-19T10:27:09.887Z,23.82
2018-04-19T10:28:09.817Z,23.82
2018-04-19T10:29:09.753Z,23.86
2018-04-19T10:30:09.682Z,23.89
2018-04-19T10:31:09.615Z,23.93
2018-04-19T10:32:09.550Z,23.80
2018-04-19T10:33:09.478Z,24.00
2018-04-19T10:34:09.413Z,23.95
2018-04-19T10:35:09.346Z,24.00
2018-04-19T10:36:09.279Z,24.02
2018-04-19T10:37:09.210Z,24.02
2018-04-19T10:38:09.143Z,24.05
2018-04-19T10:39:09.076Z,24.07
2018-04-19T10:40:09.009Z,24.10
2018-04-19T10:41:08.941Z,24.15
2018-04-19T10:42:08.874Z,24.20
2018-04-19T10:43:08.807Z,24.25
2018-04-19T10:44:08.739Z,24.23
2018-04-19T10:45:08.672Z,24.29
2018-04-19T10:46:08.604Z,24.20
2018-04-19T10:47:08.542Z,24.29
2018-04-19T10:48:08.472Z,24.34
2018-04-19T10:49:08.403Z,24.52
2018-04-19T10:50:08.342Z,24.59
2018-04-19T10:51:08.270Z,24.42
2018-04-19T10:52:08.204Z,24.48
2018-04-19T10:53:08.180Z,24.62
2018-04-19T10:54:08.133Z,24.91
2018-04-19T10:55:08.003Z,25.09
2018-04-19T10:56:07.936Z,25.22
2018-04-19T10:57:07.870Z,25.28
2018-04-19T10:58:07.803Z,25.32
2018-04-19T10:59:07.742Z,25.37
2018-04-19T11:00:07.671Z,25.35
2018-04-19T11:01:07.608Z,25.46
2018-04-19T11:02:07.538Z,25.42
2018-04-19T11:03:07.471Z,25.35
2018-04-19T11:04:07.405Z,25.32
2018-04-19T11:05:07.345Z,25.32
2018-04-19T11:06:07.274Z,25.12
2018-04-19T11:07:07.208Z,25.19
2018-04-19T11:08:07.142Z,25.23
2018-04-19T11:09:07.074Z,25.23
2018-04-19T11:10:07.010Z,25.35
2018-04-19T11:11:06.943Z,25.57
2018-04-19T11:12:06.879Z,25.68
2018-04-19T11:13:06.812Z,25.56
2018-04-19T11:14:06.746Z,25.67
2018-04-19T11:15:06.683Z,25.60
2018-04-19T11:16:06.615Z,25.40
2018-04-19T11:17:06.547Z,25.50
2018-04-19T11:18:06.482Z,25.42
2018-04-19T11:19:06.421Z,25.57
2018-04-19T11:20:06.352Z,25.62
2018-04-19T11:21:06.287Z,25.67
2018-04-19T11:22:06.222Z,25.59
2018-04-19T11:23:06.153Z,25.70
2018-04-19T11:24:06.088Z,25.68
2018-04-19T11:25:06.026Z,25.94
2018-04-19T11:26:05.957Z,26.07
2018-04-19T11:27:05.893Z,26.49
2018-04-19T11:28:05.827Z,26.38
2018-04-19T11:29:05.761Z,26.58
2018-04-19T11:30:05.695Z,27.17
2018-04-19T11:31:05.631Z,27.24
2018-04-19T11:32:05.567Z,27.21
2018-04-19T11:33:05.502Z,27.76
2018-04-19T11:34:05.437Z,27.80
2018-04-19T11:35:05.374Z,28.14
2018-04-19T11:36:05.314Z,28.96
2018-04-19T11:37:05.247Z,29.19
2018-04-19T11:38:05.185Z,29.04
2018-04-19T11:39:05.122Z,28.98
2018-04-19T11:40:05.062Z,29.23
2018-04-19T11:41:04.999Z,29.68
2018-04-19T11:42:04.938Z,30.03
2018-04-19T11:43:04.879Z,30.50
2018-04-19T11:44:04.817Z,30.87
2018-04-19T11:45:04.757Z,31.12
2018-04-19T11:46:04.700Z,30.89
2018-04-19T11:47:04.640Z,31.04
2018-04-19T11:48:04.629Z,30.74
2018-04-19T11:49:04.523Z,30.99
2018-04-19T11:50:04.466Z,31.79
2018-04-19T11:51:04.412Z,31.36
2018-04-19T11:52:04.352Z,31.80
2018-04-19T11:53:04.295Z,31.91
2018-04-19T11:54:04.238Z,32.39
2018-04-19T11:55:04.181Z,32.38
2018-04-19T11:56:04.128Z,32.53
2018-04-19T11:57:04.071Z,32.64
2018-04-19T11:58:04.018Z,32.82
2018-04-19T11:59:03.961Z,31.82
2018-04-19T12:00:03.913Z,31.90
2018-04-19T12:01:03.907Z,32.17
2018-04-19T12:02:03.798Z,32.03
2018-04-19T12:03:03.744Z,32.17
2018-04-19T12:04:03.690Z,32.13
2018-04-19T12:05:03.635Z,32.42
2018-04-19T12:06:03.582Z,32.50
2018-04-19T12:07:03.528Z,32.27
2018-04-19T12:08:03.475Z,32.21
2018-04-19T12:09:03.421Z,31.76
2018-04-19T12:10:03.369Z,31.75
2018-04-19T12:11:03.315Z,31.26
2018-04-19T12:12:03.263Z,31.29
2018-04-19T12:13:03.209Z,30.96
2018-04-19T12:14:03.156Z,31.26
2018-04-19T12:15:03.103Z,31.31
2018-04-19T12:16:03.049Z,31.51
2018-04-19T12:17:02.996Z,31.38
2018-04-19T12:18:02.943Z,31.24
2018-04-19T12:19:02.891Z,31.04
2018-04-19T12:20:02.838Z,31.26
2018-04-19T12:21:02.787Z,31.23
2018-04-19T12:22:02.732Z,31.55
2018-04-19T12:23:02.678Z,31.09
2018-04-19T12:24:02.625Z,31.21
2018-04-19T12:25:02.571Z,31.34
2018-04-19T12:26:02.523Z,31.48
2018-04-19T12:27:02.464Z,31.79
2018-04-19T12:28:02.412Z,31.04
2018-04-19T12:29:02.359Z,31.09
2018-04-19T12:30:02.306Z,30.71
2018-04-19T12:31:02.255Z,30.92
2018-04-19T12:32:02.203Z,31.39
2018-04-19T12:33:02.151Z,32.11
2018-04-19T12:34:02.093Z,32.89
2018-04-19T12:35:02.040Z,33.16
2018-04-19T12:36:02.000Z,32.67
2018-04-19T12:37:01.937Z,31.96
2018-04-19T12:38:01.886Z,32.32
2018-04-19T12:39:01.830Z,32.45
2018-04-19T12:40:01.778Z,33.07
2018-04-19T12:41:01.724Z,33.24
2018-04-19T12:42:01.672Z,33.56
2018-04-19T12:43:01.620Z,33.73
2018-04-19T12:44:01.569Z,34.16
2018-04-19T12:45:01.516Z,33.82
2018-04-19T12:46:01.468Z,33.06
2018-04-19T12:47:01.413Z,33.04
2018-04-19T12:48:01.362Z,33.21
2018-04-19T12:49:01.314Z,33.55
2018-04-19T12:50:01.271Z,33.48
2018-04-19T12:51:01.208Z,33.39
2018-04-19T12:52:01.156Z,33.54